createdAt,value
2019-05-23T04:37:35.357Z,1013.3
2019-05-23T04:40:00.021Z,1013.2
2019-05-23T04:41:12.391Z,1013.3
2019-05-23T04:42:24.734Z,1013.3
2019-05-23T04:43:37.220Z,1013.3
2019-05-23T04:44:49.420Z,1013.3
2019-05-23T04:46:01.798Z,1013.3
2019-05-23T04:48:26.538Z,1013.2
2019-05-23T04:49:43.791Z,1013.2
2019-05-23T04:50:51.237Z,1013.3
2019-05-23T04:54:28.322Z,1013.3
2019-05-23T04:55:40.628Z,1013.3
2019-05-23T04:58:05.394Z,1013.3
2019-05-23T04:59:17.724Z,1013.3
2019-05-23T05:00:30.107Z,1013.3
2019-05-23T05:01:42.375Z,1013.3
2019-05-23T05:02:54.762Z,1013.3
2019-05-23T05:05:19.496Z,1013.3
2019-05-23T05:06:31.899Z,1013.3
2019-05-23T05:07:44.140Z,1013.3
2019-05-23T05:08:56.623Z,1013.2
2019-05-23T05:10:08.956Z,1013.2
2019-05-23T05:12:33.681Z,1013.3
2019-05-23T05:13:45.938Z,1013.3
2019-05-23T05:14:58.334Z,1013.3
2019-05-23T05:17:23.017Z,1013.3
2019-05-23T05:19:47.777Z,1013.3
2019-05-23T05:22:12.406Z,1013.3
2019-05-23T05:23:24.841Z,1013.3
2019-05-23T05:24:37.175Z,1013.3
2019-05-23T05:25:49.550Z,1013.4
2019-05-23T05:27:01.862Z,1013.4
2019-05-23T05:28:14.247Z,1013.4
2019-05-23T05:29:26.645Z,1013.3
2019-05-23T05:30:38.979Z,1013.4
2019-05-23T05:31:51.273Z,1013.4
2019-05-23T05:33:03.606Z,1013.4
2019-05-23T05:34:15.946Z,1013.4
2019-05-23T05:35:28.354Z,1013.4
2019-05-23T05:36:40.671Z,1013.4
2019-05-23T05:37:53.093Z,1013.4
2019-05-23T05:39:05.385Z,1013.4
2019-05-23T05:40:20.811Z,1013.4
2019-05-23T05:41:33.897Z,1013.5
2019-05-23T05:42:42.430Z,1013.4
2019-05-23T05:43:54.823Z,1013.5
2019-05-23T05:46:19.706Z,1013.4
2019-05-23T05:47:31.855Z,1013.5
2019-05-23T05:48:44.476Z,1013.5
2019-05-23T05:49:56.564Z,1013.5
2019-05-23T05:51:08.961Z,1013.5
2019-05-23T05:52:21.273Z,1013.5
2019-05-23T05:53:33.681Z,1013.5
2019-05-23T05:54:46.023Z,1013.5
2019-05-23T05:55:58.318Z,1013.5
2019-05-23T05:58:23.105Z,1013.6
2019-05-23T06:00:47.755Z,1013.6
2019-05-23T06:02:00.164Z,1013.6
2019-05-23T06:03:12.484Z,1013.6
2019-05-23T06:04:24.819Z,1013.6
2019-05-23T06:05:37.352Z,1013.6
2019-05-23T06:06:49.596Z,1013.6
2019-05-23T06:08:01.877Z,1013.6
2019-05-23T06:10:26.687Z,1013.6
2019-05-23T06:11:38.984Z,1013.6
2019-05-23T06:12:51.328Z,1013.6
2019-05-23T06:14:05.522Z,1013.5
2019-05-23T06:16:28.402Z,1013.6
2019-05-23T06:18:53.105Z,1013.6
2019-05-23T06:20:05.522Z,1013.6
2019-05-23T06:21:17.820Z,1013.6
2019-05-23T06:22:30.183Z,1013.6
2019-05-23T06:24:58.592Z,1013.7
2019-05-23T06:26:07.233Z,1013.7
2019-05-23T06:27:19.581Z,1013.7
2019-05-23T06:28:31.918Z,1013.7
2019-05-23T06:32:08.962Z,1013.7
2019-05-23T06:34:33.824Z,1013.7
2019-05-23T06:35:46.082Z,1013.7
2019-05-23T06:36:58.395Z,1013.7
2019-05-23T06:38:10.801Z,1013.7
2019-05-23T06:39:23.203Z,1013.7
2019-05-23T06:40:35.507Z,1013.6
2019-05-23T06:41:47.897Z,1013.6
2019-05-23T06:43:00.161Z,1013.7
2019-05-23T06:44:12.577Z,1013.6
2019-05-23T06:46:37.340Z,1013.6
2019-05-23T06:49:02.149Z,1013.6
2019-05-23T06:50:14.307Z,1013.6
2019-05-23T06:51:26.637Z,1013.6
2019-05-23T06:52:39.059Z,1013.6
2019-05-23T06:53:51.365Z,1013.6
2019-05-23T06:55:03.825Z,1013.6
2019-05-23T06:56:16.085Z,1013.6
2019-05-23T06:58:40.786Z,1013.6
2019-05-23T06:59:53.226Z,1013.6
2019-05-23T07:01:05.666Z,1013.6
2019-05-23T07:02:17.850Z,1013.6
2019-05-23T07:03:30.257Z,1013.6
2019-05-23T07:04:42.561Z,1013.6
2019-05-23T07:05:54.947Z,1013.6
2019-05-23T07:07:07.289Z,1013.6
2019-05-23T07:08:19.709Z,1013.6
2019-05-23T07:09:32.122Z,1013.6
2019-05-23T07:10:44.444Z,1013.6
2019-05-23T07:11:56.792Z,1013.6
2019-05-23T07:13:09.125Z,1013.6
2019-05-23T07:14:21.431Z,1013.6
2019-05-23T07:15:33.851Z,1013.6
2019-05-23T07:16:46.119Z,1013.6
2019-05-23T07:17:58.468Z,1013.6
2019-05-23T07:19:10.904Z,1013.6
2019-05-23T07:20:23.179Z,1013.6
2019-05-23T07:22:48.004Z,1013.6
2019-05-23T07:25:13.843Z,1013.6
2019-05-23T07:26:27.054Z,1013.6
2019-05-23T07:28:50.591Z,1013.6
2019-05-23T07:30:02.146Z,1013.6
2019-05-23T07:31:14.364Z,1013.6
2019-05-23T07:32:26.706Z,1013.6
2019-05-23T07:34:51.445Z,1013.6
2019-05-23T07:36:03.823Z,1013.6
2019-05-23T07:37:16.226Z,1013.6
2019-05-23T07:38:28.494Z,1013.6
2019-05-23T07:39:40.883Z,1013.6
2019-05-23T07:40:53.198Z,1013.6
2019-05-23T07:42:05.585Z,1013.6
2019-05-23T07:43:17.952Z,1013.6
2019-05-23T07:44:30.251Z,1013.6
2019-05-23T07:46:55.200Z,1013.7
2019-05-23T07:48:07.549Z,1013.8
2019-05-23T07:49:19.810Z,1013.9
2019-05-23T07:50:32.154Z,1014
2019-05-23T07:52:56.738Z,1013.9
2019-05-23T07:54:09.152Z,1014
2019-05-23T07:55:21.448Z,1014
2019-05-23T07:56:35.696Z,1014
2019-05-23T07:57:46.202Z,1014.1
2019-05-23T07:58:58.548Z,1014
2019-05-23T08:00:10.870Z,1014
2019-05-23T08:01:23.306Z,1014.1
2019-05-23T08:02:35.616Z,1014
2019-05-23T08:03:47.945Z,1014
2019-05-23T08:05:00.344Z,1014
2019-05-23T08:07:25.080Z,1014
2019-05-23T08:08:37.390Z,1014.1
2019-05-23T08:12:14.430Z,1014.1
2019-05-23T08:13:26.771Z,1014
2019-05-23T08:14:39.703Z,1014
2019-05-23T08:17:03.949Z,1014.1
2019-05-23T08:18:16.221Z,1014
2019-05-23T08:19:28.647Z,1014.1
2019-05-23T08:21:53.297Z,1014.1
2019-05-23T08:23:05.653Z,1014.1
2019-05-23T08:24:18.066Z,1014
2019-05-23T08:27:55.109Z,1014
2019-05-23T08:29:07.531Z,1014
2019-05-23T08:30:19.739Z,1014
2019-05-23T08:31:32.138Z,1014
2019-05-23T08:32:44.650Z,1014
2019-05-23T08:35:09.192Z,1014
2019-05-23T08:36:22.842Z,1014
2019-05-23T08:37:34.016Z,1014
2019-05-23T08:38:46.322Z,1014
2019-05-23T08:41:10.979Z,1014
2019-05-23T08:42:23.293Z,1013.9
2019-05-23T08:43:35.790Z,1013.9
2019-05-23T08:46:00.503Z,1013.9
2019-05-23T08:48:25.079Z,1014
2019-05-23T08:49:37.578Z,1014
2019-05-23T08:50:49.833Z,1014
2019-05-23T08:52:02.132Z,1013.7
2019-05-23T08:53:14.540Z,1014
2019-05-23T08:55:39.295Z,1014
2019-05-23T08:56:51.566Z,1014
2019-05-23T09:00:28.695Z,1014
2019-05-23T09:01:41.086Z,1014
2019-05-23T09:02:53.457Z,1014
2019-05-23T09:04:05.684Z,1014
2019-05-23T09:05:18.068Z,1014
2019-05-23T09:06:30.445Z,1014
2019-05-23T09:07:42.791Z,1014
2019-05-23T09:10:07.592Z,1014
2019-05-23T09:11:19.852Z,1014
2019-05-23T09:12:32.243Z,1014
2019-05-23T09:13:44.581Z,1014
2019-05-23T09:14:56.974Z,1014
2019-05-23T09:16:09.412Z,1014
2019-05-23T09:17:21.623Z,1014
2019-05-23T09:18:34.023Z,1014
2019-05-23T09:19:46.328Z,1013.9
2019-05-23T09:20:58.663Z,1014
2019-05-23T09:24:35.835Z,1013.9
2019-05-23T09:25:48.112Z,1014
2019-05-23T09:27:00.506Z,1014
2019-05-23T09:28:12.835Z,1013.9
2019-05-23T09:29:25.170Z,1013.9
2019-05-23T09:30:37.569Z,1013.9
2019-05-23T09:31:49.893Z,1013.9
2019-05-23T09:33:02.279Z,1014
2019-05-23T09:34:14.617Z,1013.9
2019-05-23T09:35:27.061Z,1014
2019-05-23T09:36:39.305Z,1014
2019-05-23T09:39:04.129Z,1014
2019-05-23T09:40:16.374Z,1014
2019-05-23T09:41:28.864Z,1014
2019-05-23T09:42:41.176Z,1014
2019-05-23T09:43:53.432Z,1014
2019-05-23T09:45:05.819Z,1014.1
2019-05-23T09:47:30.530Z,1014
2019-05-23T09:48:42.855Z,1013.9
2019-05-23T09:49:55.259Z,1013.9
2019-05-23T09:51:07.627Z,1013.9
2019-05-23T09:52:20.210Z,1013.9
2019-05-23T09:53:32.322Z,1013.9
2019-05-23T09:54:44.857Z,1013.8
2019-05-23T09:55:57.020Z,1013.9
2019-05-23T09:57:09.698Z,1013.9
2019-05-23T09:59:34.357Z,1013.9
2019-05-23T10:00:46.872Z,1013.9
2019-05-23T10:03:11.199Z,1013.8
2019-05-23T10:04:23.635Z,1013.8
2019-05-23T10:05:36.299Z,1013.8
2019-05-23T10:06:51.137Z,1013.9
2019-05-23T10:08:04.462Z,1013.9
2019-05-23T10:09:13.094Z,1013.8
2019-05-23T10:11:37.609Z,1013.8
2019-05-23T10:12:50.000Z,1013.8
2019-05-23T10:14:02.340Z,1013.8
2019-05-23T10:15:14.672Z,1013.7
2019-05-23T10:16:27.089Z,1013.7
2019-05-23T10:17:39.537Z,1013.7
2019-05-23T10:18:53.025Z,1013.6
2019-05-23T10:20:04.023Z,1013.2
2019-05-23T10:21:16.377Z,1013.6
2019-05-23T10:22:28.822Z,1013.7
2019-05-23T10:23:41.107Z,1013.4
2019-05-23T10:24:57.919Z,1013.5
2019-05-23T10:26:05.885Z,1013.6
2019-05-23T10:27:18.179Z,1013.6
2019-05-23T10:28:30.521Z,1013.6
2019-05-23T10:29:42.897Z,1013.5
2019-05-23T10:30:55.261Z,1013.6
2019-05-23T10:32:07.657Z,1013.5
2019-05-23T10:33:19.939Z,1013.5
2019-05-23T10:35:44.664Z,1013.5
2019-05-23T10:36:57.008Z,1013.5
2019-05-23T10:38:09.363Z,1013.5
2019-05-23T10:39:21.707Z,1013.5
2019-05-23T10:40:34.092Z,1013.1
2019-05-23T10:41:46.522Z,1013.4
2019-05-23T10:42:58.953Z,1013.4
2019-05-23T10:44:11.228Z,1013.4
2019-05-23T10:45:23.489Z,1013.4
2019-05-23T10:46:35.874Z,1013.5
2019-05-23T10:47:48.718Z,1013.4
2019-05-23T10:49:00.557Z,1013.3
2019-05-23T10:50:12.915Z,1013.3
2019-05-23T10:51:25.304Z,1013.3
2019-05-23T10:52:37.655Z,1013.3
2019-05-23T10:53:49.987Z,1013.3
2019-05-23T10:56:14.709Z,1013.4
2019-05-23T10:57:27.050Z,1013.4
2019-05-23T10:59:51.858Z,1013.3
2019-05-23T11:01:04.108Z,1013.2
2019-05-23T11:02:16.638Z,1013.2
2019-05-23T11:03:28.822Z,1013.2
2019-05-23T11:04:41.202Z,1013.1
2019-05-23T11:07:06.242Z,1013.2
2019-05-23T11:08:18.678Z,1013.2
2019-05-23T11:10:42.973Z,1013.2
2019-05-23T11:11:55.463Z,1012.9
2019-05-23T11:13:07.666Z,1012.9
2019-05-23T11:14:20.022Z,1012.8
2019-05-23T11:16:44.738Z,1012.8
2019-05-23T11:17:57.194Z,1012.9
2019-05-23T11:19:09.442Z,1013.1
2019-05-23T11:20:21.882Z,1013.1
2019-05-23T11:21:34.143Z,1013.1
2019-05-23T11:23:58.897Z,1012.9
2019-05-23T11:25:11.285Z,1012.9
2019-05-23T11:26:23.675Z,1012.8
2019-05-23T11:27:36.004Z,1012.8
2019-05-23T11:28:48.321Z,1012.9
2019-05-23T11:30:00.662Z,1012.8
2019-05-23T11:31:18.805Z,1012.8
2019-05-23T11:32:25.459Z,1012.7
2019-05-23T11:33:37.864Z,1012.8
2019-05-23T11:34:50.064Z,1012.8
2019-05-23T11:36:02.424Z,1012.7
2019-05-23T11:37:14.874Z,1012.7
2019-05-23T11:38:27.137Z,1012.7
2019-05-23T11:40:51.857Z,1012.7
2019-05-23T11:42:04.194Z,1012.7
2019-05-23T11:43:16.552Z,1012.6
2019-05-23T11:44:28.920Z,1012.6
2019-05-23T11:45:41.421Z,1012.5
2019-05-23T11:48:06.054Z,1012.5
2019-05-23T11:49:18.330Z,1012.5
2019-05-23T11:50:30.677Z,1012.5
2019-05-23T11:51:43.063Z,1012.5
2019-05-23T11:52:55.518Z,1012.6
2019-05-23T11:55:20.227Z,1012.5
2019-05-23T11:56:32.462Z,1012.5
2019-05-23T11:57:44.913Z,1012.4
2019-05-23T11:58:57.189Z,1012.4
2019-05-23T12:00:09.658Z,1012.4
2019-05-23T12:01:21.887Z,1012.5
2019-05-23T12:02:34.931Z,1012.5
2019-05-23T12:03:46.605Z,1012.4
2019-05-23T12:04:58.967Z,1012.4
2019-05-23T12:06:11.447Z,1012.3
2019-05-23T12:07:23.682Z,1012.4
2019-05-23T12:08:36.188Z,1012.4
2019-05-23T12:09:48.437Z,1012.4
2019-05-23T12:12:13.175Z,1012.3
2019-05-23T12:13:25.580Z,1012.4
2019-05-23T12:14:37.786Z,1012.3
2019-05-23T12:15:50.167Z,1012.3
2019-05-23T12:17:02.505Z,1012.3
2019-05-23T12:18:14.856Z,1012.3
2019-05-23T12:19:27.326Z,1012.3
2019-05-23T12:20:39.588Z,1012.4
2019-05-23T12:21:52.646Z,1012.4
2019-05-23T12:24:18.308Z,1012.3
2019-05-23T12:26:41.427Z,1012.3
2019-05-23T12:27:53.725Z,1012.2
2019-05-23T12:29:06.121Z,1012.2
2019-05-23T12:30:18.409Z,1012.3
2019-05-23T12:31:30.794Z,1012.3
2019-05-23T12:32:43.123Z,1012.2
2019-05-23T12:33:55.479Z,1012.2
2019-05-23T12:36:20.232Z,1012.1
2019-05-23T12:37:32.535Z,1012.1
2019-05-23T12:38:45.031Z,1012.2
2019-05-23T12:39:57.271Z,1012.2
2019-05-23T12:41:09.685Z,1012.1
2019-05-23T12:42:21.963Z,1012.1
2019-05-23T12:43:34.361Z,1012
2019-05-23T12:44:46.683Z,1012
2019-05-23T12:45:59.026Z,1012
2019-05-23T12:47:11.577Z,1012.1
2019-05-23T12:48:23.759Z,1012.1
2019-05-23T12:49:36.271Z,1012.1
2019-05-23T12:50:48.477Z,1012
2019-05-23T12:52:00.813Z,1012
2019-05-23T12:53:13.161Z,1012
2019-05-23T12:54:26.032Z,1012
2019-05-23T12:55:37.953Z,1012
2019-05-23T12:56:50.267Z,1012
2019-05-23T12:58:02.581Z,1012
2019-05-23T13:00:27.351Z,1011.9
2019-05-23T13:01:39.653Z,1011.9
2019-05-23T13:02:52.006Z,1012
2019-05-23T13:04:06.182Z,1011.9
2019-05-23T13:05:16.810Z,1011.9
2019-05-23T13:06:29.097Z,1011.8
2019-05-23T13:07:41.419Z,1011.8
2019-05-23T13:08:53.922Z,1011.8
2019-05-23T13:10:06.232Z,1011.8
2019-05-23T13:12:31.065Z,1011.7
2019-05-23T13:13:43.200Z,1011.8
2019-05-23T13:14:55.558Z,1011.8
2019-05-23T13:16:07.930Z,1011.7
2019-05-23T13:17:20.270Z,1011.8
2019-05-23T13:18:32.718Z,1011.8
2019-05-23T13:19:44.976Z,1011.8
2019-05-23T13:20:57.386Z,1011.7
2019-05-23T13:22:09.782Z,1011.8
2019-05-23T13:24:34.423Z,1011.7
2019-05-23T13:25:46.760Z,1011.8
2019-05-23T13:26:59.195Z,1011.7
2019-05-23T13:28:11.460Z,1011.7
2019-05-23T13:29:23.857Z,1011.7
2019-05-23T13:30:36.313Z,1011.7
2019-05-23T13:31:48.604Z,1011.6
2019-05-23T13:33:00.938Z,1011.6
2019-05-23T13:34:17.001Z,1011.6
2019-05-23T13:35:25.627Z,1011.6
2019-05-23T13:36:38.090Z,1011.6
2019-05-23T13:37:50.357Z,1011.6
2019-05-23T13:39:02.658Z,1011.6
2019-05-23T13:40:15.130Z,1011.6
2019-05-23T13:41:27.377Z,1011.6
2019-05-23T13:42:39.868Z,1011.5
2019-05-23T13:43:52.159Z,1011.5
2019-05-23T13:45:04.433Z,1011.6
2019-05-23T13:46:16.884Z,1011.5
2019-05-23T13:48:41.838Z,1011.5
2019-05-23T13:49:54.317Z,1011.5
2019-05-23T13:51:08.289Z,1011.5
2019-05-23T13:52:21.797Z,1011.5
2019-05-23T13:53:35.430Z,1011.5
2019-05-23T13:54:43.307Z,1011.5
2019-05-23T13:57:08.101Z,1011.4
2019-05-23T13:58:20.371Z,1011.4
2019-05-23T13:59:33.314Z,1011.4
2019-05-23T14:00:45.083Z,1011.4
2019-05-23T14:01:57.472Z,1011.4
2019-05-23T14:04:22.140Z,1011.4
2019-05-23T14:05:34.473Z,1011.4
2019-05-23T14:06:46.876Z,1011.4
2019-05-23T14:07:59.268Z,1011.3
2019-05-23T14:09:11.666Z,1011.3
2019-05-23T14:10:23.990Z,1011.3
2019-05-23T14:12:48.617Z,1011.3
2019-05-23T14:14:01.018Z,1011.3
2019-05-23T14:15:13.309Z,1011.2
2019-05-23T14:16:25.673Z,1011.3
2019-05-23T14:17:38.025Z,1011.2
2019-05-23T14:18:50.379Z,1011.4
2019-05-23T14:20:02.748Z,1011.2
2019-05-23T14:21:15.081Z,1011.3
2019-05-23T14:22:27.499Z,1011.1
2019-05-23T14:23:39.860Z,1011.2
2019-05-23T14:24:52.161Z,1011.2
2019-05-23T14:26:04.617Z,1011.2
2019-05-23T14:27:21.056Z,1011.2
2019-05-23T14:28:35.267Z,1011.3
2019-05-23T14:29:41.630Z,1011.3
2019-05-23T14:30:53.979Z,1011.2
2019-05-23T14:32:06.264Z,1011.3
2019-05-23T14:33:18.620Z,1011.2
2019-05-23T14:34:30.956Z,1011.2
2019-05-23T14:36:55.663Z,1011.2
2019-05-23T14:38:08.027Z,1011
2019-05-23T14:39:20.526Z,1011.1
2019-05-23T14:40:32.808Z,1011.1
2019-05-23T14:41:45.207Z,1011.1
2019-05-23T14:42:57.515Z,1011.2
2019-05-23T14:44:09.845Z,1011.2
2019-05-23T14:45:22.260Z,1011.1
2019-05-23T14:46:34.522Z,1011.1
2019-05-23T14:48:59.245Z,1011.1
2019-05-23T14:50:11.564Z,1011
2019-05-23T14:51:23.995Z,1011.1
2019-05-23T14:52:36.313Z,1011.1
2019-05-23T14:53:48.629Z,1011.1
2019-05-23T14:55:00.970Z,1011
2019-05-23T14:56:13.304Z,1011
2019-05-23T14:57:25.658Z,1011
2019-05-23T14:58:38.044Z,1011.1
2019-05-23T15:01:02.725Z,1011
2019-05-23T15:02:15.197Z,1010.9
2019-05-23T15:03:27.565Z,1011.1
2019-05-23T15:04:39.879Z,1011
